createdAt,value
2018-11-12T00:02:18.646Z,5.60
2018-11-12T00:04:47.133Z,5.70
2018-11-12T00:07:15.464Z,5.60
2018-11-12T00:09:43.757Z,5.60
2018-11-12T00:12:12.011Z,5.50
2018-11-12T00:14:40.300Z,5.60
2018-11-12T00:17:08.619Z,5.50
2018-11-12T00:19:36.885Z,5.50
2018-11-12T00:22:05.699Z,5.50
2018-11-12T00:24:33.848Z,5.50
2018-11-12T00:27:02.106Z,5.40
2018-11-12T00:29:35.806Z,5.50
2018-11-12T00:32:04.117Z,5.50
2018-11-12T00:34:32.362Z,5.50
2018-11-12T00:37:00.613Z,5.40
2018-11-12T00:39:28.853Z,5.40
2018-11-12T00:41:57.372Z,5.40
2018-11-12T00:44:25.678Z,5.40
2018-11-12T00:46:53.968Z,5.50
2018-11-12T00:49:22.266Z,5.50
2018-11-12T00:51:50.696Z,5.60
2018-11-12T00:54:18.980Z,5.60
2018-11-12T00:56:47.413Z,5.60
2018-11-12T00:59:15.692Z,5.70
2018-11-12T01:01:43.947Z,5.70
2018-11-12T01:04:12.262Z,5.70
2018-11-12T01:06:40.659Z,5.60
2018-11-12T01:09:10.600Z,5.60
2018-11-12T01:11:38.874Z,5.50
2018-11-12T01:14:07.184Z,5.50
2018-11-12T01:16:35.430Z,5.50
2018-11-12T01:19:03.782Z,5.50
2018-11-12T01:21:32.086Z,5.50
2018-11-12T01:24:00.625Z,5.50
2018-11-12T01:26:28.853Z,5.40
2018-11-12T01:28:57.976Z,5.40
2018-11-12T01:31:26.242Z,5.40
2018-11-12T01:33:54.579Z,5.40
2018-11-12T01:36:22.887Z,5.50
2018-11-12T01:38:51.289Z,5.60
2018-11-12T01:41:19.563Z,5.50
2018-11-12T01:43:47.984Z,5.30
2018-11-12T01:46:16.221Z,5.20
2018-11-12T01:48:44.461Z,5.20
2018-11-12T01:51:12.716Z,5.40
2018-11-12T01:53:41.021Z,5.40
2018-11-12T01:56:09.384Z,5.70
2018-11-12T01:58:37.689Z,5.60
2018-11-12T02:01:05.938Z,5.40
2018-11-12T02:03:34.214Z,5.20
2018-11-12T02:06:02.742Z,5.00
2018-11-12T02:08:30.978Z,4.80
2018-11-12T02:10:59.672Z,4.80
2018-11-12T02:13:27.933Z,4.80
2018-11-12T02:15:56.285Z,4.70
2018-11-12T02:18:24.536Z,4.60
2018-11-12T02:20:53.260Z,4.50
2018-11-12T02:23:21.486Z,4.60
2018-11-12T02:25:49.933Z,4.60
2018-11-12T02:28:18.244Z,4.70
2018-11-12T02:30:47.620Z,4.70
2018-11-12T02:33:16.478Z,4.60
2018-11-12T02:35:44.894Z,4.50
2018-11-12T02:38:13.207Z,4.40
2018-11-12T02:40:41.431Z,4.40
2018-11-12T02:43:09.709Z,4.30
2018-11-12T02:45:37.953Z,4.20
2018-11-12T02:48:06.211Z,4.20
2018-11-12T02:50:34.818Z,4.30
2018-11-12T02:53:03.072Z,4.50
2018-11-12T02:55:31.359Z,4.40
2018-11-12T02:57:59.718Z,4.40
2018-11-12T03:00:27.939Z,4.40
2018-11-12T03:02:56.352Z,4.40
2018-11-12T03:05:24.647Z,4.50
2018-11-12T03:07:53.202Z,4.50
2018-11-12T03:10:23.678Z,4.80
2018-11-12T03:12:52.311Z,4.90
2018-11-12T03:15:21.328Z,5.00
2018-11-12T03:17:50.481Z,5.00
2018-11-12T03:20:20.106Z,5.00
2018-11-12T03:22:48.493Z,5.10
2018-11-12T03:25:18.144Z,5.10
2018-11-12T03:27:47.028Z,4.70
2018-11-12T03:30:16.636Z,4.60
2018-11-12T03:32:45.691Z,4.50
2018-11-12T03:35:15.247Z,4.60
2018-11-12T03:37:44.523Z,4.60
2018-11-12T03:40:17.129Z,4.40
2018-11-12T03:42:45.948Z,4.30
2018-11-12T03:45:22.357Z,4.00
2018-11-12T03:47:50.782Z,4.00
2018-11-12T03:50:20.434Z,4.00
2018-11-12T03:52:48.762Z,4.00
2018-11-12T03:55:18.178Z,3.90
2018-11-12T03:57:46.466Z,4.00
2018-11-12T04:00:19.436Z,4.00
2018-11-12T04:02:47.569Z,4.00
2018-11-12T04:05:15.912Z,4.00
2018-11-12T04:07:44.278Z,4.00
2018-11-12T04:10:14.861Z,4.10
2018-11-12T04:12:43.303Z,4.20
2018-11-12T04:15:14.189Z,4.20
2018-11-12T04:17:42.556Z,4.10
2018-11-12T04:20:12.595Z,4.20
2018-11-12T04:22:41.753Z,4.30
2018-11-12T04:25:11.601Z,4.30
2018-11-12T04:27:39.901Z,4.30
2018-11-12T04:30:12.627Z,4.30
2018-11-12T04:32:41.537Z,4.70
2018-11-12T04:35:10.181Z,5.10
2018-11-12T04:37:38.584Z,5.40
2018-11-12T04:40:08.891Z,5.50
2018-11-12T04:42:37.769Z,5.20
2018-11-12T04:45:07.681Z,4.80
2018-11-12T04:47:36.006Z,4.80
2018-11-12T04:50:06.112Z,4.70
2018-11-12T04:52:34.373Z,4.80
2018-11-12T04:55:02.894Z,4.70
2018-11-12T04:57:31.254Z,4.70
2018-11-12T05:00:00.330Z,4.60
2018-11-12T05:02:29.904Z,4.80
2018-11-12T05:05:00.218Z,5.10
2018-11-12T05:07:28.488Z,5.40
2018-11-12T05:09:56.804Z,5.50
2018-11-12T05:12:25.717Z,5.60
2018-11-12T05:14:54.229Z,5.80
2018-11-12T05:17:22.621Z,5.90
2018-11-12T05:19:54.368Z,6.00
2018-11-12T05:22:22.681Z,6.00
2018-11-12T05:24:50.974Z,6.00
2018-11-12T05:27:19.305Z,6.10
2018-11-12T05:29:48.214Z,6.20
2018-11-12T05:32:16.608Z,6.20
2018-11-12T05:34:45.841Z,6.30
2018-11-12T05:37:15.228Z,6.40
2018-11-12T05:39:43.526Z,6.40
2018-11-12T05:42:11.781Z,6.40
2018-11-12T05:44:40.067Z,6.40
2018-11-12T05:47:08.432Z,6.50
2018-11-12T05:49:37.544Z,6.40
2018-11-12T05:52:06.122Z,6.30
2018-11-12T05:54:34.856Z,6.30
2018-11-12T05:57:05.306Z,6.30
2018-11-12T05:59:33.662Z,6.40
2018-11-12T06:02:02.292Z,6.50
2018-11-12T06:04:30.571Z,6.50
2018-11-12T06:06:58.946Z,6.60
2018-11-12T06:09:27.349Z,6.60
2018-11-12T06:11:55.901Z,6.60
2018-11-12T06:14:24.250Z,6.60
2018-11-12T06:16:52.821Z,6.70
2018-11-12T06:19:21.194Z,6.70
2018-11-12T06:21:49.456Z,6.70
2018-11-12T06:24:18.110Z,6.70
2018-11-12T06:26:46.452Z,6.70
2018-11-12T06:29:14.760Z,6.80
2018-11-12T06:31:43.076Z,6.90
2018-11-12T06:34:11.550Z,6.90
2018-11-12T06:36:39.870Z,7.10
2018-11-12T06:39:09.232Z,7.10
2018-11-12T06:41:37.751Z,7.10
2018-11-12T06:44:06.827Z,7.20
2018-11-12T06:46:35.421Z,7.30
2018-11-12T06:49:03.742Z,7.50
2018-11-12T06:51:32.009Z,7.60
2018-11-12T06:54:00.516Z,7.70
2018-11-12T06:56:28.785Z,7.90
2018-11-12T06:58:57.389Z,8.10
2018-11-12T07:01:25.836Z,8.40
2018-11-12T07:03:54.184Z,9.00
2018-11-12T07:06:22.527Z,9.20
2018-11-12T07:08:51.132Z,9.30
2018-11-12T07:11:19.397Z,9.50
2018-11-12T07:13:47.700Z,9.40
2018-11-12T07:16:16.000Z,9.30
2018-11-12T07:18:44.284Z,9.20
2018-11-12T07:21:12.557Z,9.10
2018-11-12T07:23:40.837Z,9.00
2018-11-12T07:26:09.098Z,8.90
2018-11-12T07:28:37.405Z,8.80
2018-11-12T07:31:06.012Z,8.70
2018-11-12T07:33:34.297Z,8.60
2018-11-12T07:36:03.385Z,8.60
2018-11-12T07:38:31.664Z,8.60
2018-11-12T07:41:00.108Z,8.60
2018-11-12T07:43:28.409Z,8.60
2018-11-12T07:45:56.932Z,8.70
2018-11-12T07:48:25.260Z,8.80
2018-11-12T07:50:53.597Z,8.90
2018-11-12T07:53:21.878Z,9.00
2018-11-12T07:55:50.126Z,9.00
2018-11-12T07:58:18.438Z,9.10
2018-11-12T08:00:46.716Z,9.30
2018-11-12T08:03:15.141Z,9.40
2018-11-12T08:05:43.242Z,9.50
2018-11-12T08:08:11.564Z,9.70
2018-11-12T08:10:39.845Z,10.00
2018-11-12T08:13:08.143Z,10.40
2018-11-12T08:15:36.404Z,10.70
2018-11-12T08:18:04.716Z,10.90
2018-11-12T08:20:33.116Z,10.90
2018-11-12T08:23:01.527Z,10.90
2018-11-12T08:25:29.905Z,10.90
2018-11-12T08:27:58.350Z,10.90
2018-11-12T08:30:27.828Z,10.80
2018-11-12T08:32:57.440Z,10.80
2018-11-12T08:35:25.865Z,10.70
2018-11-12T08:37:54.581Z,10.60
2018-11-12T08:40:24.329Z,10.50
2018-11-12T08:42:52.880Z,10.50
2018-11-12T08:45:21.213Z,10.50
2018-11-12T08:47:50.941Z,10.40
2018-11-12T08:50:21.514Z,10.40
2018-11-12T08:52:50.657Z,10.50
2018-11-12T08:55:20.320Z,10.50
2018-11-12T08:57:50.944Z,10.50
2018-11-12T09:00:20.321Z,10.60
2018-11-12T09:02:48.790Z,10.60
2018-11-12T09:05:18.135Z,10.60
2018-11-12T09:07:48.014Z,10.70
2018-11-12T09:10:18.226Z,10.80
2018-11-12T09:12:46.893Z,10.80
2018-11-12T09:15:15.361Z,10.80
2018-11-12T09:17:44.450Z,10.90
2018-11-12T09:20:15.220Z,11.00
2018-11-12T09:22:43.469Z,11.00
2018-11-12T09:25:14.547Z,11.10
2018-11-12T09:27:42.960Z,11.10
2018-11-12T09:30:17.274Z,11.10
2018-11-12T09:32:45.828Z,11.10
2018-11-12T09:35:15.197Z,11.20
2018-11-12T09:37:44.822Z,11.20
2018-11-12T09:40:46.098Z,11.30
2018-11-12T09:43:14.439Z,11.40
2018-11-12T09:45:42.731Z,11.40
2018-11-12T09:48:10.929Z,11.50
2018-11-12T09:50:39.241Z,11.60
2018-11-12T09:53:07.522Z,11.60
2018-11-12T09:55:35.809Z,11.70
2018-11-12T09:58:07.118Z,11.70
2018-11-12T10:00:35.622Z,11.70
2018-11-12T10:03:04.616Z,11.80
2018-11-12T10:05:33.730Z,11.90
2018-11-12T10:08:05.194Z,12.00
2018-11-12T10:10:47.626Z,12.10
2018-11-12T10:13:16.993Z,12.20
2018-11-12T10:15:47.076Z,12.20
2018-11-12T10:20:39.949Z,12.10
2018-11-12T10:23:08.245Z,12.20
2018-11-12T10:25:36.524Z,12.20
2018-11-12T10:28:04.853Z,12.20
2018-11-12T10:30:33.149Z,12.30
2018-11-12T10:33:01.498Z,12.30
2018-11-12T10:35:29.784Z,12.20
2018-11-12T10:37:58.098Z,12.20
2018-11-12T10:40:26.809Z,12.10
2018-11-12T10:42:55.088Z,12.20
2018-11-12T10:45:23.380Z,12.10
2018-11-12T10:47:52.618Z,12.20
2018-11-12T10:50:21.210Z,12.20
2018-11-12T10:52:49.509Z,12.20
2018-11-12T10:55:19.262Z,12.20
2018-11-12T10:57:47.872Z,12.20
2018-11-12T11:00:24.790Z,12.20
2018-11-12T11:02:59.721Z,12.10
2018-11-12T11:05:28.001Z,12.10
2018-11-12T11:07:56.296Z,12.00
2018-11-12T11:10:25.846Z,12.00
2018-11-12T11:12:54.794Z,12.00
2018-11-12T11:15:23.044Z,12.00
2018-11-12T11:17:51.284Z,12.00
2018-11-12T11:20:19.570Z,12.00
2018-11-12T11:22:47.842Z,12.00
2018-11-12T11:25:16.076Z,12.00
2018-11-12T11:27:44.385Z,11.90
2018-11-12T11:30:14.030Z,11.90
2018-11-12T11:32:42.368Z,11.80
2018-11-12T11:35:11.938Z,11.80
2018-11-12T11:37:40.239Z,11.90
2018-11-12T11:40:12.071Z,11.90
2018-11-12T11:42:40.493Z,11.90
2018-11-12T11:45:16.320Z,12.00
2018-11-12T11:47:45.504Z,12.10
2018-11-12T11:50:15.288Z,12.00
2018-11-12T11:52:43.494Z,12.00
2018-11-12T11:55:13.304Z,12.10
2018-11-12T11:57:41.748Z,12.10
2018-11-12T12:00:19.886Z,12.20
2018-11-12T12:02:49.338Z,12.20
2018-11-12T12:05:18.320Z,12.20
2018-11-12T12:07:46.596Z,12.10
2018-11-12T12:10:15.740Z,12.10
2018-11-12T12:12:44.728Z,12.10
2018-11-12T12:15:14.366Z,12.00
2018-11-12T12:17:42.613Z,11.90
2018-11-12T12:20:13.213Z,11.90
2018-11-12T12:22:41.492Z,11.80
2018-11-12T12:25:11.647Z,11.90
2018-11-12T12:27:40.277Z,11.90
2018-11-12T12:30:13.257Z,11.90
2018-11-12T12:32:42.101Z,11.90
2018-11-12T12:35:11.365Z,11.90
2018-11-12T12:37:39.885Z,11.80
2018-11-12T12:40:09.517Z,11.80
2018-11-12T12:42:38.232Z,11.80
2018-11-12T12:45:07.524Z,11.80
2018-11-12T12:47:35.746Z,11.90
2018-11-12T12:50:05.208Z,11.90
2018-11-12T12:52:33.493Z,11.90
2018-11-12T12:55:01.966Z,11.90
2018-11-12T12:57:31.010Z,12.00
2018-11-12T12:59:59.432Z,12.10
2018-11-12T13:02:27.654Z,12.20
2018-11-12T13:04:55.986Z,12.30
2018-11-12T13:07:24.279Z,12.30
2018-11-12T13:09:52.574Z,12.30
2018-11-12T13:12:21.484Z,12.40
2018-11-12T13:14:50.047Z,12.50
2018-11-12T13:17:18.169Z,12.70
2018-11-12T13:19:46.446Z,12.80
2018-11-12T13:22:14.761Z,12.80
2018-11-12T13:24:43.155Z,12.80
2018-11-12T13:27:11.532Z,12.60
2018-11-12T13:29:39.970Z,12.50
2018-11-12T13:32:08.590Z,12.40
2018-11-12T13:34:36.909Z,12.40
2018-11-12T13:37:05.421Z,12.30
2018-11-12T13:39:33.849Z,12.20
2018-11-12T13:42:02.069Z,12.10
2018-11-12T13:44:30.357Z,12.10
2018-11-12T13:46:59.198Z,12.10
2018-11-12T13:49:27.483Z,12.10
2018-11-12T13:51:56.656Z,12.10
2018-11-12T13:54:25.049Z,12.00
2018-11-12T13:56:53.349Z,11.90
2018-11-12T13:59:21.656Z,11.90
2018-11-12T14:01:49.954Z,11.90
2018-11-12T14:04:18.488Z,11.80
2018-11-12T14:06:46.797Z,11.80
2018-11-12T14:09:15.151Z,11.70
2018-11-12T14:11:43.433Z,11.60
2018-11-12T14:14:11.868Z,11.60
2018-11-12T14:16:40.234Z,11.60
2018-11-12T14:19:08.776Z,11.60
2018-11-12T14:21:37.256Z,11.60
2018-11-12T14:24:05.519Z,11.60
2018-11-12T14:26:33.852Z,11.50
2018-11-12T14:29:02.222Z,11.40
2018-11-12T14:31:30.613Z,11.30
2018-11-12T14:33:58.969Z,11.30
2018-11-12T14:36:27.634Z,11.30
2018-11-12T14:38:56.235Z,11.20
2018-11-12T14:41:24.483Z,11.10
2018-11-12T14:43:52.789Z,11.00
2018-11-12T14:46:21.053Z,10.80
2018-11-12T14:48:49.309Z,10.80
2018-11-12T14:51:17.769Z,10.70
2018-11-12T14:53:45.859Z,10.70
2018-11-12T14:56:14.773Z,10.70
2018-11-12T14:58:43.044Z,10.70
2018-11-12T15:01:11.376Z,10.80
2018-11-12T15:03:39.677Z,10.80
2018-11-12T15:06:08.107Z,10.90
2018-11-12T15:08:36.372Z,10.90
2018-11-12T15:11:04.861Z,10.90
2018-11-12T15:13:33.165Z,10.90
2018-11-12T15:16:01.425Z,10.90
2018-11-12T15:18:29.700Z,10.80
2018-11-12T15:20:58.482Z,10.70
2018-11-12T15:23:26.800Z,10.60
2018-11-12T15:25:55.340Z,10.30
2018-11-12T15:28:23.652Z,10.10
2018-11-12T15:30:51.900Z,10.00
2018-11-12T15:33:20.169Z,9.90
2018-11-12T15:35:48.476Z,9.70
2018-11-12T15:38:16.730Z,9.60
2018-11-12T15:40:44.997Z,9.60
2018-11-12T15:43:13.482Z,9.50
2018-11-12T15:45:41.649Z,9.50
2018-11-12T15:48:09.945Z,9.30
2018-11-12T15:50:38.293Z,9.30
2018-11-12T15:53:06.593Z,9.20
2018-11-12T15:55:34.997Z,9.00
2018-11-12T15:58:03.376Z,9.00
2018-11-12T16:00:31.717Z,9.10
2018-11-12T16:03:00.323Z,9.10
2018-11-12T16:05:28.718Z,9.10
2018-11-12T16:07:57.019Z,9.00
2018-11-12T16:10:25.419Z,9.00
2018-11-12T16:12:53.879Z,9.10
2018-11-12T16:15:23.236Z,9.20
2018-11-12T16:17:51.689Z,9.20
2018-11-12T16:20:25.629Z,9.30
2018-11-12T16:22:54.249Z,9.30
2018-11-12T16:25:23.325Z,9.30
2018-11-12T16:27:51.707Z,9.30
2018-11-12T16:30:20.078Z,9.40
2018-11-12T16:32:48.511Z,9.40
2018-11-12T16:35:18.895Z,9.40
2018-11-12T16:37:48.162Z,9.40
2018-11-12T16:40:16.713Z,9.30
2018-11-12T16:42:46.073Z,9.30
2018-11-12T16:45:15.017Z,9.30
2018-11-12T16:47:43.783Z,9.30
2018-11-12T16:50:12.878Z,9.20
2018-11-12T16:52:41.590Z,9.30
2018-11-12T16:55:14.762Z,9.20
2018-11-12T16:57:43.185Z,9.10
2018-11-12T17:00:13.197Z,9.10
2018-11-12T17:02:42.037Z,9.00
2018-11-12T17:05:18.278Z,8.90
2018-11-12T17:07:46.662Z,8.90
2018-11-12T17:10:16.372Z,8.90
2018-11-12T17:12:45.492Z,8.90
2018-11-12T17:15:14.689Z,8.90
2018-11-12T17:17:43.477Z,8.80
2018-11-12T17:20:13.054Z,8.70
2018-11-12T17:22:41.377Z,8.60
2018-11-12T17:25:10.962Z,8.40
2018-11-12T17:27:39.252Z,8.20
2018-11-12T17:30:09.976Z,8.10
2018-11-12T17:32:38.229Z,8.00
2018-11-12T17:35:08.378Z,8.00
2018-11-12T17:37:36.923Z,7.90
2018-11-12T17:40:09.589Z,7.90
2018-11-12T17:42:37.976Z,7.90
2018-11-12T17:45:09.582Z,7.90
2018-11-12T17:47:38.045Z,7.90
2018-11-12T17:50:07.685Z,8.00
2018-11-12T17:52:36.123Z,7.90
2018-11-12T17:55:05.046Z,7.90
2018-11-12T17:57:33.361Z,7.90
2018-11-12T18:00:01.991Z,7.90
2018-11-12T18:02:30.569Z,7.90
2018-11-12T18:04:58.872Z,7.90
2018-11-12T18:07:27.351Z,7.90
2018-11-12T18:09:55.545Z,7.80
2018-11-12T18:12:23.953Z,7.80
2018-11-12T18:14:52.244Z,7.80
2018-11-12T18:17:20.748Z,7.70
2018-11-12T18:19:49.127Z,7.70
2018-11-12T18:22:17.779Z,7.60
2018-11-12T18:24:46.077Z,7.60
2018-11-12T18:27:14.431Z,7.60
2018-11-12T18:29:42.767Z,7.50
2018-11-12T18:32:11.069Z,7.40
2018-11-12T18:34:39.475Z,7.40
2018-11-12T18:37:08.214Z,7.40
2018-11-12T18:39:36.529Z,7.40
2018-11-12T18:42:04.979Z,7.40
2018-11-12T18:44:33.254Z,7.30
2018-11-12T18:47:01.585Z,7.30
2018-11-12T18:49:29.933Z,7.20
2018-11-12T18:51:58.254Z,7.10
2018-11-12T18:54:26.766Z,7.10
2018-11-12T18:56:55.026Z,7.10
2018-11-12T18:59:23.450Z,7.00
2018-11-12T19:01:51.912Z,7.00
2018-11-12T19:04:20.371Z,6.90
2018-11-12T19:06:48.682Z,6.90
2018-11-12T19:09:17.342Z,6.80
2018-11-12T19:11:45.600Z,6.80
2018-11-12T19:14:13.901Z,6.70
2018-11-12T19:17:46.100Z,6.70
2018-11-12T19:20:15.384Z,6.70
2018-11-12T19:22:43.688Z,6.80
2018-11-12T19:25:12.920Z,6.90
2018-11-12T19:27:41.746Z,7.00
2018-11-12T19:30:19.236Z,7.00
2018-11-12T19:32:47.624Z,7.10
2018-11-12T19:35:17.230Z,7.20
2018-11-12T19:37:45.546Z,7.20
2018-11-12T19:40:15.456Z,7.30
2018-11-12T19:42:44.753Z,7.30
2018-11-12T19:45:13.636Z,7.30
2018-11-12T19:47:42.240Z,7.40
2018-11-12T19:50:15.880Z,7.40
2018-11-12T19:52:45.328Z,7.40
2018-11-12T19:55:13.920Z,7.50
2018-11-12T19:57:42.609Z,7.50
2018-11-12T20:00:13.089Z,7.50
2018-11-12T20:02:42.345Z,7.60
2018-11-12T20:05:10.869Z,7.60
2018-11-12T20:07:39.586Z,7.60
2018-11-12T20:10:09.864Z,7.60
2018-11-12T20:12:38.163Z,7.60
2018-11-12T20:15:06.941Z,7.60
2018-11-12T20:17:35.251Z,7.60
2018-11-12T20:20:03.977Z,7.60
2018-11-12T20:22:32.297Z,7.60
2018-11-12T20:25:01.003Z,7.60
2018-11-12T20:27:29.502Z,7.60
2018-11-12T20:29:57.778Z,7.60
2018-11-12T20:32:26.344Z,7.50
2018-11-12T20:34:54.620Z,7.50
2018-11-12T20:37:23.037Z,7.50
2018-11-12T20:39:51.405Z,7.50
2018-11-12T20:42:19.900Z,7.50
2018-11-12T20:44:48.170Z,7.50
2018-11-12T20:47:16.573Z,7.50
2018-11-12T20:49:44.851Z,7.50
2018-11-12T20:52:13.145Z,7.50
2018-11-12T20:54:41.495Z,7.50
2018-11-12T20:57:09.796Z,7.50
2018-11-12T20:59:38.106Z,7.40
2018-11-12T21:02:06.641Z,7.30
2018-11-12T21:04:35.083Z,7.30
2018-11-12T21:07:03.457Z,7.20
2018-11-12T21:09:31.874Z,7.10
2018-11-12T21:12:00.438Z,7.10
2018-11-12T21:14:29.078Z,7.00
2018-11-12T21:16:57.409Z,7.00
2018-11-12T21:19:25.807Z,7.00
2018-11-12T21:21:54.283Z,7.10
2018-11-12T21:24:23.170Z,7.20
2018-11-12T21:26:51.496Z,7.20
2018-11-12T21:29:19.883Z,7.20
2018-11-12T21:31:48.218Z,7.20
2018-11-12T21:34:16.469Z,7.20
2018-11-12T21:36:44.770Z,7.20
2018-11-12T21:39:14.228Z,7.30
2018-11-12T21:41:42.910Z,7.30
2018-11-12T21:44:11.369Z,7.40
2018-11-12T21:46:40.059Z,7.40
2018-11-12T21:49:08.356Z,7.40
2018-11-12T21:51:36.766Z,7.40
2018-11-12T21:54:05.209Z,7.50
2018-11-12T21:56:33.513Z,7.40
2018-11-12T21:59:01.820Z,7.40
2018-11-12T22:01:30.294Z,7.50
2018-11-12T22:03:58.573Z,7.50
2018-11-12T22:06:27.772Z,7.40
2018-11-12T22:08:56.128Z,7.40
2018-11-12T22:11:24.585Z,7.30
2018-11-12T22:13:53.020Z,7.30
2018-11-12T22:16:22.712Z,7.30
2018-11-12T22:18:51.057Z,7.20
2018-11-12T22:21:19.474Z,7.20
2018-11-12T22:23:47.804Z,7.20
2018-11-12T22:26:16.343Z,7.20
2018-11-12T22:28:44.625Z,7.20
2018-11-12T22:31:12.926Z,7.30
2018-11-12T22:33:41.233Z,7.40
2018-11-12T22:36:09.643Z,7.50
2018-11-12T22:38:37.947Z,7.50
2018-11-12T22:41:06.296Z,7.60
2018-11-12T22:43:34.697Z,7.50
2018-11-12T22:46:03.158Z,7.40
2018-11-12T22:48:31.527Z,7.30
2018-11-12T22:50:59.797Z,7.10
2018-11-12T22:53:28.103Z,6.90
2018-11-12T22:55:56.421Z,6.80
2018-11-12T22:58:26.674Z,6.80
2018-11-12T23:00:55.016Z,6.90
2018-11-12T23:03:23.421Z,6.90
2018-11-12T23:05:56.077Z,6.90
2018-11-12T23:08:24.436Z,6.90
2018-11-12T23:10:52.773Z,6.90
2018-11-12T23:13:21.113Z,6.90
2018-11-12T23:15:49.465Z,6.90
2018-11-12T23:18:17.799Z,6.90
2018-11-12T23:20:46.139Z,7.00
2018-11-12T23:23:14.562Z,7.00
2018-11-12T23:25:42.913Z,7.10
2018-11-12T23:28:11.373Z,7.20
2018-11-12T23:30:39.740Z,7.20
2018-11-12T23:33:08.490Z,7.20
2018-11-12T23:35:36.922Z,7.20
2018-11-12T23:38:05.360Z,7.10
2018-11-12T23:40:33.706Z,7.20
2018-11-12T23:43:02.090Z,7.20
2018-11-12T23:45:30.426Z,7.20
2018-11-12T23:47:58.769Z,7.20
2018-11-12T23:50:27.234Z,7.20
2018-11-12T23:52:55.649Z,7.30
2018-11-12T23:55:23.996Z,7.20
2018-11-12T23:57:52.489Z,7.20
